Orbital elements of COSMOS 2263
| Launched | 15 September 1993 |
| Flight ended | – |
| Launch site | Tyuratam Missile and Space Center, Kazakhstan (Also known as Baikonur Cosmodrome) |
| Owner | Commonwealth of Independent States (former USSR) |
| NORAD ID | 22802 |
| Date fetched |
Epoch osculation |
Inc. [°] |
Ecc. | RA asc node [hr] |
Arg Peri. [°] |
Mean anom [°] |
Mean motion [rev/day] |
Abs. mag |
| Date fetched |
Epoch osculation |
Inc. [°] |
Ecc. | RA asc node [hr] |
Arg Peri. [°] |
Mean anom [°] |
Mean motion [rev/day] |
Abs. mag |
| 2026 May 01 17:56 | 2026 Apr 30 14:54:37 | 70.9280 | 0.00219 | 23.5063 | 40.5044 | 319.7705 | 14.13639 | 5.243 |
| 2026 Apr 30 17:56 | 2026 Apr 30 14:54:37 | 70.9280 | 0.00219 | 23.5063 | 40.5044 | 319.7705 | 14.13639 | 5.243 |
| 2026 Apr 29 17:57 | 2026 Apr 24 02:40:18 | 70.9286 | 0.00216 | 0.4190 | 50.4017 | 319.7705 | 14.13639 | 5.243 |
| 2026 Apr 28 17:56 | 2026 Apr 24 02:40:18 | 70.9286 | 0.00216 | 0.4190 | 50.4017 | 319.7705 | 14.13639 | 5.243 |
| 2026 Apr 27 17:58 | 2026 Apr 24 02:40:18 | 70.9286 | 0.00216 | 0.4190 | 50.4017 | 319.7705 | 14.13639 | 5.243 |
| 2026 Apr 26 17:58 | 2026 Apr 24 02:40:18 | 70.9286 | 0.00216 | 0.4190 | 50.4017 | 319.7705 | 14.13639 | 5.243 |
| 2026 Apr 25 17:58 | 2026 Apr 24 02:40:18 | 70.9286 | 0.00216 | 0.4190 | 50.4017 | 319.7705 | 14.13639 | 5.243 |
| 2026 Apr 24 17:59 | 2026 Apr 24 02:40:18 | 70.9286 | 0.00216 | 0.4190 | 50.4017 | 319.7705 | 14.13639 | 5.243 |
| 2026 Apr 23 17:57 | 2026 Apr 19 10:35:14 | 70.9290 | 0.00214 | 1.0738 | 57.6006 | 319.7705 | 14.13639 | 5.243 |
| 2026 Apr 22 17:57 | 2026 Apr 19 10:35:14 | 70.9290 | 0.00214 | 1.0738 | 57.6006 | 319.7705 | 14.13639 | 5.243 |
| 2026 Apr 21 17:57 | 2026 Apr 19 10:35:14 | 70.9290 | 0.00214 | 1.0738 | 57.6006 | 319.7705 | 14.13639 | 5.243 |
| 2026 Apr 20 17:57 | 2026 Apr 19 10:35:14 | 70.9290 | 0.00214 | 1.0738 | 57.6006 | 319.7705 | 14.13639 | 5.243 |
| 2026 Apr 19 17:58 | 2026 Apr 19 10:35:14 | 70.9290 | 0.00214 | 1.0738 | 57.6006 | 319.7705 | 14.13639 | 5.243 |
| 2026 Apr 18 17:56 | 2026 Apr 13 05:08:30 | 70.9293 | 0.00210 | 1.9467 | 67.2073 | 319.7705 | 14.13639 | 5.243 |
| 2026 Apr 16 17:57 | 2026 Apr 13 05:08:30 | 70.9293 | 0.00210 | 1.9467 | 67.2073 | 319.7705 | 14.13639 | 5.243 |
| 2026 Apr 14 17:57 | 2026 Apr 13 05:08:30 | 70.9293 | 0.00210 | 1.9467 | 67.2073 | 319.7705 | 14.13639 | 5.243 |
| 2026 Apr 13 17:57 | 2026 Apr 13 05:08:30 | 70.9293 | 0.00210 | 1.9467 | 67.2073 | 319.7705 | 14.13639 | 5.243 |
| 2026 Apr 12 17:57 | 2026 Apr 08 06:15:52 | 70.9293 | 0.00208 | 2.6411 | 75.1046 | 319.7705 | 14.13639 | 5.243 |
| 2026 Apr 11 17:57 | 2026 Apr 08 06:15:52 | 70.9293 | 0.00208 | 2.6411 | 75.1046 | 319.7705 | 14.13639 | 5.243 |
| 2026 Apr 10 17:58 | 2026 Apr 08 06:15:52 | 70.9293 | 0.00208 | 2.6411 | 75.1046 | 319.7705 | 14.13639 | 5.243 |
| 2026 Apr 09 18:01 | 2026 Apr 08 06:15:52 | 70.9293 | 0.00208 | 2.6411 | 75.1046 | 319.7705 | 14.13639 | 5.243 |
| 2026 Apr 08 17:57 | 2026 Apr 08 06:15:52 | 70.9293 | 0.00208 | 2.6411 | 75.1046 | 319.7705 | 14.13639 | 5.243 |
| 2026 Apr 07 17:57 | 2026 Apr 02 07:36:45 | 70.9291 | 0.00206 | 3.4745 | 84.9295 | 319.7705 | 14.13639 | 5.243 |
| 2026 Apr 06 17:57 | 2026 Apr 02 07:36:45 | 70.9291 | 0.00206 | 3.4745 | 84.9295 | 319.7705 | 14.13639 | 5.243 |
| 2026 Apr 05 17:56 | 2026 Apr 02 07:36:45 | 70.9291 | 0.00206 | 3.4745 | 84.9295 | 319.7705 | 14.13639 | 5.243 |
| 2026 Apr 04 17:57 | 2026 Apr 02 07:36:45 | 70.9291 | 0.00206 | 3.4745 | 84.9295 | 319.7705 | 14.13639 | 5.243 |